sensor_id;sensor_type;location;lat;lon;timestamp;pressure;altitude;pressure_sealevel;temperature;humidity
18784;BME280;9520;50.954;6.968;2022-12-18T00:00:19;102278.69;;;3.27;43.67
18784;BME280;9520;50.954;6.968;2022-12-18T00:00:42;102277.59;;;3.20;43.72
18784;BME280;9520;50.954;6.968;2022-12-18T00:01:13;102284.09;;;3.31;43.34
18784;BME280;9520;50.954;6.968;2022-12-18T00:01:37;102285.44;;;3.22;43.15
18784;BME280;9520;50.954;6.968;2022-12-18T00:01:59;102285.34;;;3.19;43.34
18784;BME280;9520;50.954;6.968;2022-12-18T00:02:21;102285.00;;;3.11;42.98
18784;BME280;9520;50.954;6.968;2022-12-18T00:02:44;102285.22;;;3.16;43.00
18784;BME280;9520;50.954;6.968;2022-12-18T00:03:06;102290.66;;;3.22;43.45
18784;BME280;9520;50.954;6.968;2022-12-18T00:03:29;102288.25;;;3.26;43.73
18784;BME280;9520;50.954;6.968;2022-12-18T00:03:51;102268.53;;;3.12;43.46
18784;BME280;9520;50.954;6.968;2022-12-18T00:04:18;102258.13;;;3.12;43.23
18784;BME280;9520;50.954;6.968;2022-12-18T00:04:41;102274.75;;;3.36;43.41
18784;BME280;9520;50.954;6.968;2022-12-18T00:05:03;102282.81;;;3.42;43.16
18784;BME280;9520;50.954;6.968;2022-12-18T00:05:25;102286.44;;;3.46;43.01
18784;BME280;9520;50.954;6.968;2022-12-18T00:05:48;102280.47;;;3.48;43.27
18784;BME280;9520;50.954;6.968;2022-12-18T00:06:11;102290.63;;;3.42;43.16
18784;BME280;9520;50.954;6.968;2022-12-18T00:06:34;102288.50;;;3.32;43.32
18784;BME280;9520;50.954;6.968;2022-12-18T00:06:56;102290.16;;;3.30;42.86
18784;BME280;9520;50.954;6.968;2022-12-18T00:07:18;102289.09;;;3.25;43.37
18784;BME280;9520;50.954;6.968;2022-12-18T00:07:40;102292.38;;;3.21;43.33
18784;BME280;9520;50.954;6.968;2022-12-18T00:08:02;102294.09;;;3.21;43.71
18784;BME280;9520;50.954;6.968;2022-12-18T00:08:29;102288.25;;;3.26;43.48
18784;BME280;9520;50.954;6.968;2022-12-18T00:08:51;102284.06;;;3.30;43.30
18784;BME280;9520;50.954;6.968;2022-12-18T00:09:12;102290.22;;;3.32;43.21
18784;BME280;9520;50.954;6.968;2022-12-18T00:09:35;102292.06;;;3.34;43.42
18784;BME280;9520;50.954;6.968;2022-12-18T00:10:00;102291.09;;;3.32;42.73
18784;BME280;9520;50.954;6.968;2022-12-18T00:10:22;102291.88;;;3.30;42.98
18784;BME280;9520;50.954;6.968;2022-12-18T00:10:44;102283.16;;;3.29;43.08
18784;BME280;9520;50.954;6.968;2022-12-18T00:11:10;102294.59;;;3.33;43.38
18784;BME280;9520;50.954;6.968;2022-12-18T00:11:33;102290.16;;;3.30;43.26
18784;BME280;9520;50.954;6.968;2022-12-18T00:11:55;102259.78;;;3.10;43.00
18784;BME280;9520;50.954;6.968;2022-12-18T00:12:17;102291.81;;;3.28;43.08
18784;BME280;9520;50.954;6.968;2022-12-18T00:12:44;102291.09;;;3.32;43.23
18784;BME280;9520;50.954;6.968;2022-12-18T00:13:06;102292.06;;;3.34;42.64
18784;BME280;9520;50.954;6.968;2022-12-18T00:13:31;102280.66;;;3.32;43.15
18784;BME280;9520;50.954;6.968;2022-12-18T00:13:54;102290.28;;;3.33;43.15
18784;BME280;9520;50.954;6.968;2022-12-18T00:14:16;102292.06;;;3.34;43.03
18784;BME280;9520;50.954;6.968;2022-12-18T00:14:39;102293.78;;;3.34;43.22
18784;BME280;9520;50.954;6.968;2022-12-18T00:15:05;102275.03;;;3.22;43.00
18784;BME280;9520;50.954;6.968;2022-12-18T00:15:27;102297.78;;;3.26;43.08
18784;BME280;9520;50.954;6.968;2022-12-18T00:15:49;102286.72;;;3.31;43.22
18784;BME280;9520;50.954;6.968;2022-12-18T00:16:13;102295.38;;;3.30;43.41
18784;BME280;9520;50.954;6.968;2022-12-18T00:16:37;102293.72;;;3.32;42.99
18784;BME280;9520;50.954;6.968;2022-12-18T00:16:58;102292.19;;;3.37;42.92
18784;BME280;9520;50.954;6.968;2022-12-18T00:17:22;102292.09;;;3.36;42.95
18784;BME280;9520;50.954;6.968;2022-12-18T00:17:44;102293.19;;;3.41;43.34
18784;BME280;9520;50.954;6.968;2022-12-18T00:18:06;102297.13;;;3.31;43.19
18784;BME280;9520;50.954;6.968;2022-12-18T00:18:28;102298.09;;;3.33;43.31
18784;BME280;9520;50.954;6.968;2022-12-18T00:18:51;102294.66;;;3.34;43.33
18784;BME280;9520;50.954;6.968;2022-12-18T00:19:14;102298.03;;;3.32;43.30
18784;BME280;9520;50.954;6.968;2022-12-18T00:19:37;102288.84;;;3.19;43.35
18784;BME280;9520;50.954;6.968;2022-12-18T00:19:58;102289.13;;;3.27;43.71
18784;BME280;9520;50.954;6.968;2022-12-18T00:20:20;102293.34;;;3.23;43.48
18784;BME280;9520;50.954;6.968;2022-12-18T00:20:46;102294.16;;;3.22;43.63
18784;BME280;9520;50.954;6.968;2022-12-18T00:21:12;102293.34;;;3.23;43.18
18784;BME280;9520;50.954;6.968;2022-12-18T00:21:33;102293.41;;;3.25;43.06
18784;BME280;9520;50.954;6.968;2022-12-18T00:21:55;102301.22;;;3.25;43.22
18784;BME280;9520;50.954;6.968;2022-12-18T00:22:19;102302.16;;;3.27;43.42
18784;BME280;9520;50.954;6.968;2022-12-18T00:22:41;102295.13;;;3.24;43.75
18784;BME280;9520;50.954;6.968;2022-12-18T00:23:02;102300.09;;;3.18;42.83
18784;BME280;9520;50.954;6.968;2022-12-18T00:23:24;102295.66;;;3.16;43.29
18784;BME280;9520;50.954;6.968;2022-12-18T00:23:48;102300.19;;;3.21;43.28
18784;BME280;9520;50.954;6.968;2022-12-18T00:24:11;102298.56;;;3.23;43.69
18784;BME280;9520;50.954;6.968;2022-12-18T00:24:33;102299.81;;;3.12;43.58
18784;BME280;9520;50.954;6.968;2022-12-18T00:24:55;102300.66;;;3.11;43.58
18784;BME280;9520;50.954;6.968;2022-12-18T00:25:19;102295.56;;;3.14;43.78
18784;BME280;9520;50.954;6.968;2022-12-18T00:25:43;102295.69;;;3.17;43.93
18784;BME280;9520;50.954;6.968;2022-12-18T00:26:38;102302.88;;;3.23;43.37
18784;BME280;9520;50.954;6.968;2022-12-18T00:27:19;102294.50;;;3.30;43.32
18784;BME280;9520;50.954;6.968;2022-12-18T00:27:59;102296.19;;;3.29;43.60
18784;BME280;9520;50.954;6.968;2022-12-18T00:28:23;102292.81;;;3.32;43.69
18784;BME280;9520;50.954;6.968;2022-12-18T00:28:52;102299.06;;;3.35;43.21
18784;BME280;9520;50.954;6.968;2022-12-18T00:29:15;102294.78;;;3.37;43.02
18784;BME280;9520;50.954;6.968;2022-12-18T00:29:58;102268.25;;;3.25;42.83
18784;BME280;9520;50.954;6.968;2022-12-18T00:30:26;102285.06;;;3.33;43.16
18784;BME280;9520;50.954;6.968;2022-12-18T00:30:49;102299.28;;;3.41;42.94
18784;BME280;9520;50.954;6.968;2022-12-18T00:31:16;102299.09;;;3.37;43.62
18784;BME280;9520;50.954;6.968;2022-12-18T00:31:47;102297.56;;;3.42;43.20
18784;BME280;9520;50.954;6.968;2022-12-18T00:32:18;102294.22;;;3.44;43.28
18784;BME280;9520;50.954;6.968;2022-12-18T00:32:46;102298.56;;;3.45;42.94
18784;BME280;9520;50.954;6.968;2022-12-18T00:33:10;102308.19;;;3.46;42.61
18784;BME280;9520;50.954;6.968;2022-12-18T00:33:33;102298.19;;;3.35;43.19
18784;BME280;9520;50.954;6.968;2022-12-18T00:33:57;102303.25;;;3.32;43.27
18784;BME280;9520;50.954;6.968;2022-12-18T00:34:37;102296.47;;;3.35;43.27
18784;BME280;9520;50.954;6.968;2022-12-18T00:35:22;102289.28;;;3.30;43.13
18784;BME280;9520;50.954;6.968;2022-12-18T00:36:42;102303.13;;;3.29;43.34
18784;BME280;9520;50.954;6.968;2022-12-18T00:37:28;102305.13;;;3.36;43.33
18784;BME280;9520;50.954;6.968;2022-12-18T00:39:05;102311.03;;;3.10;43.71
18784;BME280;9520;50.954;6.968;2022-12-18T00:39:30;102312.03;;;3.13;43.28
18784;BME280;9520;50.954;6.968;2022-12-18T00:40:06;102317.56;;;3.21;43.03
18784;BME280;9520;50.954;6.968;2022-12-18T00:40:31;102321.25;;;3.26;43.23
18784;BME280;9520;50.954;6.968;2022-12-18T00:40:53;102320.41;;;3.27;43.54
18784;BME280;9520;50.954;6.968;2022-12-18T00:41:17;102310.16;;;3.31;43.01
18784;BME280;9520;50.954;6.968;2022-12-18T00:42:01;102320.97;;;3.40;43.05
18784;BME280;9520;50.954;6.968;2022-12-18T00:42:49;102313.84;;;3.36;43.28
18784;BME280;9520;50.954;6.968;2022-12-18T00:43:25;102299.72;;;3.30;42.70
18784;BME280;9520;50.954;6.968;2022-12-18T00:44:26;102315.91;;;3.43;42.83
18784;BME280;9520;50.954;6.968;2022-12-18T00:44:58;102317.78;;;3.47;42.99
18784;BME280;9520;50.954;6.968;2022-12-18T00:45:27;102300.06;;;3.39;42.86
18784;BME280;9520;50.954;6.968;2022-12-18T00:45:53;102315.19;;;3.47;42.96
18784;BME280;9520;50.954;6.968;2022-12-18T00:46:19;102305.31;;;3.40;43.03
18784;BME280;9520;50.954;6.968;2022-12-18T00:47:18;102315.00;;;3.43;43.13
18784;BME280;9520;50.954;6.968;2022-12-18T00:47:47;102306.44;;;3.25;43.39
18784;BME280;9520;50.954;6.968;2022-12-18T00:48:29;102304.03;;;3.29;43.08
18784;BME280;9520;50.954;6.968;2022-12-18T00:48:54;102306.88;;;3.35;43.12
18784;BME280;9520;50.954;6.968;2022-12-18T00:49:23;102294.59;;;3.33;42.67
18784;BME280;9520;50.954;6.968;2022-12-18T00:49:55;102296.38;;;3.34;42.47
18784;BME280;9520;50.954;6.968;2022-12-18T00:50:17;102298.84;;;3.31;42.84
18784;BME280;9520;50.954;6.968;2022-12-18T00:50:39;102296.84;;;3.24;42.79
18784;BME280;9520;50.954;6.968;2022-12-18T00:51:02;102300.88;;;3.16;43.22
18784;BME280;9520;50.954;6.968;2022-12-18T00:51:28;102300.41;;;3.05;43.42
18784;BME280;9520;50.954;6.968;2022-12-18T00:51:50;102295.50;;;2.92;43.44
18784;BME280;9520;50.954;6.968;2022-12-18T00:52:11;102294.94;;;2.99;43.32
18784;BME280;9520;50.954;6.968;2022-12-18T00:52:33;102296.09;;;3.06;42.99
18784;BME280;9520;50.954;6.968;2022-12-18T00:52:55;102302.31;;;3.09;43.25
18784;BME280;9520;50.954;6.968;2022-12-18T00:53:18;102292.59;;;3.05;43.32
18784;BME280;9520;50.954;6.968;2022-12-18T00:53:39;102299.97;;;3.15;43.45
18784;BME280;9520;50.954;6.968;2022-12-18T00:54:03;102296.13;;;3.07;43.28
18784;BME280;9520;50.954;6.968;2022-12-18T00:54:25;102285.69;;;3.06;42.75
18784;BME280;9520;50.954;6.968;2022-12-18T00:54:47;102292.06;;;3.14;43.52
18784;BME280;9520;50.954;6.968;2022-12-18T00:55:09;102290.63;;;3.20;43.42
18784;BME280;9520;50.954;6.968;2022-12-18T00:55:31;102291.00;;;3.09;43.36
18784;BME280;9520;50.954;6.968;2022-12-18T00:55:53;102293.72;;;3.12;43.09
18784;BME280;9520;50.954;6.968;2022-12-18T00:56:15;102288.31;;;3.07;42.86
18784;BME280;9520;50.954;6.968;2022-12-18T00:56:47;102255.66;;;2.94;43.19
18784;BME280;9520;50.954;6.968;2022-12-18T00:57:12;102286.69;;;3.09;43.37
18784;BME280;9520;50.954;6.968;2022-12-18T00:57:36;102284.06;;;3.09;43.32
18784;BME280;9520;50.954;6.968;2022-12-18T00:57:58;102291.06;;;3.10;43.38
18784;BME280;9520;50.954;6.968;2022-12-18T00:58:22;102285.78;;;3.09;43.14
18784;BME280;9520;50.954;6.968;2022-12-18T00:58:43;102281.47;;;3.09;43.71
18784;BME280;9520;50.954;6.968;2022-12-18T00:59:05;102263.75;;;3.00;43.52
18784;BME280;9520;50.954;6.968;2022-12-18T00:59:27;102272.75;;;3.09;43.53
18784;BME280;9520;50.954;6.968;2022-12-18T00:59:48;102283.88;;;3.04;43.04
18784;BME280;9520;50.954;6.968;2022-12-18T01:00:14;102279.50;;;2.83;43.95
18784;BME280;9520;50.954;6.968;2022-12-18T01:00:37;102284.97;;;2.89;44.03
18784;BME280;9520;50.954;6.968;2022-12-18T01:00:59;102282.63;;;2.95;43.57
18784;BME280;9520;50.954;6.968;2022-12-18T01:01:21;102287.38;;;2.84;43.40
18784;BME280;9520;50.954;6.968;2022-12-18T01:01:46;102277.84;;;2.85;43.78
18784;BME280;9520;50.954;6.968;2022-12-18T01:04:12;102292.63;;;3.07;43.36
18784;BME280;9520;50.954;6.968;2022-12-18T01:04:34;102292.06;;;3.14;43.39
18784;BME280;9520;50.954;6.968;2022-12-18T01:04:56;102294.09;;;3.21;43.14
18784;BME280;9520;50.954;6.968;2022-12-18T01:05:18;102299.31;;;3.21;43.35
18784;BME280;9520;50.954;6.968;2022-12-18T01:05:41;102292.44;;;3.23;42.71
18784;BME280;9520;50.954;6.968;2022-12-18T01:06:06;102300.44;;;3.27;42.90
18784;BME280;9520;50.954;6.968;2022-12-18T01:06:29;102258.94;;;3.11;42.78
18784;BME280;9520;50.954;6.968;2022-12-18T01:06:50;102288.88;;;3.21;42.59
18784;BME280;9520;50.954;6.968;2022-12-18T01:07:12;102287.75;;;3.14;42.83
18784;BME280;9520;50.954;6.968;2022-12-18T01:07:34;102295.22;;;3.05;42.81
18784;BME280;9520;50.954;6.968;2022-12-18T01:07:57;102290.19;;;3.10;43.57
18784;BME280;9520;50.954;6.968;2022-12-18T01:08:18;102292.06;;;3.14;42.89
18784;BME280;9520;50.954;6.968;2022-12-18T01:08:40;102283.25;;;3.10;42.90
18784;BME280;9520;50.954;6.968;2022-12-18T01:09:02;102280.13;;;2.98;42.85
18784;BME280;9520;50.954;6.968;2022-12-18T01:09:25;102288.28;;;3.06;43.03
18784;BME280;9520;50.954;6.968;2022-12-18T01:09:47;102280.66;;;3.10;43.38
18784;BME280;9520;50.954;6.968;2022-12-18T01:10:10;102285.25;;;3.17;43.11
18784;BME280;9520;50.954;6.968;2022-12-18T01:10:33;102279.78;;;3.11;42.71
18784;BME280;9520;50.954;6.968;2022-12-18T01:10:55;102281.31;;;3.06;43.11
18784;BME280;9520;50.954;6.968;2022-12-18T01:11:19;102261.16;;;3.00;43.00
18784;BME280;9520;50.954;6.968;2022-12-18T01:11:41;102274.03;;;3.18;43.39
18784;BME280;9520;50.954;6.968;2022-12-18T01:12:05;102278.53;;;3.22;42.89
18784;BME280;9520;50.954;6.968;2022-12-18T01:12:28;102282.13;;;3.26;42.78
18784;BME280;9520;50.954;6.968;2022-12-18T01:12:50;102277.34;;;3.14;42.92
18784;BME280;9520;50.954;6.968;2022-12-18T01:13:11;102275.91;;;3.22;43.09
18784;BME280;9520;50.954;6.968;2022-12-18T01:13:33;102284.69;;;3.24;42.81
18784;BME280;9520;50.954;6.968;2022-12-18T01:13:55;102277.41;;;3.16;42.77
18784;BME280;9520;50.954;6.968;2022-12-18T01:14:20;102282.66;;;3.17;42.77
18784;BME280;9520;50.954;6.968;2022-12-18T01:14:42;102286.78;;;3.12;42.74
18784;BME280;9520;50.954;6.968;2022-12-18T01:15:07;102283.47;;;3.16;42.73
18784;BME280;9520;50.954;6.968;2022-12-18T01:15:47;102284.53;;;2.99;43.21
18784;BME280;9520;50.954;6.968;2022-12-18T01:17:53;102282.19;;;3.27;42.47
18784;BME280;9520;50.954;6.968;2022-12-18T01:19:07;102274.28;;;3.24;42.70
18784;BME280;9520;50.954;6.968;2022-12-18T01:19:44;102283.16;;;3.29;42.95
18784;BME280;9520;50.954;6.968;2022-12-18T01:20:16;102283.91;;;3.27;42.87
18784;BME280;9520;50.954;6.968;2022-12-18T01:20:40;102271.69;;;3.26;42.70
18784;BME280;9520;50.954;6.968;2022-12-18T01:21:10;102285.88;;;3.32;42.85
18784;BME280;9520;50.954;6.968;2022-12-18T01:21:39;102280.81;;;3.35;42.88
18784;BME280;9520;50.954;6.968;2022-12-18T01:22:04;102275.91;;;3.22;43.09
18784;BME280;9520;50.954;6.968;2022-12-18T01:22:38;102277.00;;;3.27;42.44
18784;BME280;9520;50.954;6.968;2022-12-18T01:23:04;102285.06;;;3.33;42.83
18784;BME280;9520;50.954;6.968;2022-12-18T01:23:29;102281.00;;;3.40;43.19
18784;BME280;9520;50.954;6.968;2022-12-18T01:24:01;102278.50;;;3.43;42.74
18784;BME280;9520;50.954;6.968;2022-12-18T01:25:09;102277.34;;;3.36;42.30
18784;BME280;9520;50.954;6.968;2022-12-18T01:25:41;102285.44;;;3.42;42.65
18784;BME280;9520;50.954;6.968;2022-12-18T01:26:13;102288.66;;;3.37;42.59
18784;BME280;9520;50.954;6.968;2022-12-18T01:26:40;102282.72;;;3.39;42.49
18784;BME280;9520;50.954;6.968;2022-12-18T01:27:08;102285.31;;;3.39;42.41
18784;BME280;9520;50.954;6.968;2022-12-18T01:27:35;102287.06;;;3.40;42.52
18784;BME280;9520;50.954;6.968;2022-12-18T01:28:16;102285.63;;;3.26;42.46
18784;BME280;9520;50.954;6.968;2022-12-18T01:28:55;102275.16;;;3.25;42.38
18784;BME280;9520;50.954;6.968;2022-12-18T01:29:19;102280.59;;;3.31;42.60
18784;BME280;9520;50.954;6.968;2022-12-18T01:29:56;102286.88;;;3.36;42.86
18784;BME280;9520;50.954;6.968;2022-12-18T01:30:22;102290.28;;;3.33;42.89
18784;BME280;9520;50.954;6.968;2022-12-18T01:30:57;102282.19;;;3.27;42.67
18784;BME280;9520;50.954;6.968;2022-12-18T01:31:28;102285.69;;;3.28;42.65
18784;BME280;9520;50.954;6.968;2022-12-18T01:32:10;102287.13;;;3.20;42.77
18784;BME280;9520;50.954;6.968;2022-12-18T01:33:04;102289.03;;;3.03;42.96
18784;BME280;9520;50.954;6.968;2022-12-18T01:33:51;102297.38;;;3.15;43.55
18784;BME280;9520;50.954;6.968;2022-12-18T01:34:23;102292.97;;;3.14;43.09
18784;BME280;9520;50.954;6.968;2022-12-18T01:35:54;102289.59;;;3.17;42.82
18784;BME280;9520;50.954;6.968;2022-12-18T01:37:06;102290.75;;;3.23;42.99
18784;BME280;9520;50.954;6.968;2022-12-18T01:38:08;102295.38;;;3.30;42.94
18784;BME280;9520;50.954;6.968;2022-12-18T01:38:31;102294.31;;;3.25;42.79
18784;BME280;9520;50.954;6.968;2022-12-18T01:38:53;102297.78;;;3.26;42.99
18784;BME280;9520;50.954;6.968;2022-12-18T01:39:15;102297.72;;;3.24;42.76
18784;BME280;9520;50.954;6.968;2022-12-18T01:39:38;102292.69;;;3.29;42.54
18784;BME280;9520;50.954;6.968;2022-12-18T01:40:01;102298.09;;;3.33;43.08
18784;BME280;9520;50.954;6.968;2022-12-18T01:40:23;102290.38;;;3.36;42.81
18784;BME280;9520;50.954;6.968;2022-12-18T01:40:46;102292.19;;;3.37;42.81
18784;BME280;9520;50.954;6.968;2022-12-18T01:41:08;102288.75;;;3.38;42.68
18784;BME280;9520;50.954;6.968;2022-12-18T01:41:31;102293.06;;;3.38;42.33
18784;BME280;9520;50.954;6.968;2022-12-18T01:42:11;102295.16;;;3.46;42.42
18784;BME280;9520;50.954;6.968;2022-12-18T01:42:33;102286.44;;;3.46;42.30
18784;BME280;9520;50.954;6.968;2022-12-18T01:42:55;102284.28;;;3.36;42.03
18784;BME280;9520;50.954;6.968;2022-12-18T01:43:17;102284.16;;;3.33;42.39
18784;BME280;9520;50.954;6.968;2022-12-18T01:43:44;102292.69;;;3.29;42.42
18784;BME280;9520;50.954;6.968;2022-12-18T01:45:06;102287.03;;;3.39;43.00
18784;BME280;9520;50.954;6.968;2022-12-18T01:45:30;102282.38;;;3.32;42.52
18784;BME280;9520;50.954;6.968;2022-12-18T01:45:52;102281.50;;;3.31;42.76
18784;BME280;9520;50.954;6.968;2022-12-18T01:46:15;102286.84;;;3.34;42.73
18784;BME280;9520;50.954;6.968;2022-12-18T01:46:36;102287.84;;;3.38;42.76
18784;BME280;9520;50.954;6.968;2022-12-18T01:46:59;102291.34;;;3.38;42.67
18784;BME280;9520;50.954;6.968;2022-12-18T01:47:25;102293.88;;;3.37;42.71
18784;BME280;9520;50.954;6.968;2022-12-18T01:47:49;102287.66;;;3.33;42.47
18784;BME280;9520;50.954;6.968;2022-12-18T01:48:12;102282.34;;;3.30;42.63
18784;BME280;9520;50.954;6.968;2022-12-18T01:48:35;102287.78;;;3.36;42.57
18784;BME280;9520;50.954;6.968;2022-12-18T01:49:00;102287.06;;;3.40;42.69
18784;BME280;9520;50.954;6.968;2022-12-18T01:49:22;102289.69;;;3.40;42.90
18784;BME280;9520;50.954;6.968;2022-12-18T01:49:44;102289.75;;;3.42;42.66
18784;BME280;9520;50.954;6.968;2022-12-18T01:50:08;102286.31;;;3.43;42.66
18784;BME280;9520;50.954;6.968;2022-12-18T01:50:34;102289.81;;;3.43;42.29
18784;BME280;9520;50.954;6.968;2022-12-18T01:51:01;102282.00;;;3.43;42.47
18784;BME280;9520;50.954;6.968;2022-12-18T01:51:25;102277.78;;;3.47;42.32
18784;BME280;9520;50.954;6.968;2022-12-18T01:51:49;102282.00;;;3.43;42.38
18784;BME280;9520;50.954;6.968;2022-12-18T01:52:11;102281.28;;;3.25;42.41
18784;BME280;9520;50.954;6.968;2022-12-18T01:52:33;102285.81;;;3.31;42.52
18784;BME280;9520;50.954;6.968;2022-12-18T01:52:59;102284.63;;;3.23;42.31
18784;BME280;9520;50.954;6.968;2022-12-18T01:53:22;102282.91;;;3.23;42.60
18784;BME280;9520;50.954;6.968;2022-12-18T01:53:46;102282.13;;;3.26;42.55
18784;BME280;9520;50.954;6.968;2022-12-18T01:54:08;102286.59;;;3.28;42.24
18784;BME280;9520;50.954;6.968;2022-12-18T01:54:30;102294.50;;;3.30;42.66
18784;BME280;9520;50.954;6.968;2022-12-18T01:54:52;102283.16;;;3.29;42.39
18784;BME280;9520;50.954;6.968;2022-12-18T01:55:16;102281.28;;;3.25;42.84
18784;BME280;9520;50.954;6.968;2022-12-18T01:55:43;102279.59;;;3.27;42.74
18784;BME280;9520;50.954;6.968;2022-12-18T01:56:08;102287.41;;;3.27;42.24
18784;BME280;9520;50.954;6.968;2022-12-18T01:56:33;102282.19;;;3.27;42.52
18784;BME280;9520;50.954;6.968;2022-12-18T01:56:56;102282.28;;;3.29;42.61
18784;BME280;9520;50.954;6.968;2022-12-18T01:57:18;102280.50;;;3.28;42.47
18784;BME280;9520;50.954;6.968;2022-12-18T01:57:41;102276.88;;;3.24;42.15
18784;BME280;9520;50.954;6.968;2022-12-18T01:58:03;102284.97;;;3.30;42.55
18784;BME280;9520;50.954;6.968;2022-12-18T01:58:30;102280.13;;;3.19;43.08
18784;BME280;9520;50.954;6.968;2022-12-18T01:58:56;102275.91;;;3.22;42.62
18784;BME280;9520;50.954;6.968;2022-12-18T01:59:20;102277.06;;;3.29;42.55
18784;BME280;9520;50.954;6.968;2022-12-18T01:59:43;102278.84;;;3.30;42.50
18784;BME280;9520;50.954;6.968;2022-12-18T02:00:10;102274.19;;;3.23;42.28
18784;BME280;9520;50.954;6.968;2022-12-18T02:00:33;102280.22;;;3.22;42.56
18784;BME280;9520;50.954;6.968;2022-12-18T02:00:55;102271.53;;;3.21;42.27
18784;BME280;9520;50.954;6.968;2022-12-18T02:01:17;102284.75;;;3.26;42.78
18784;BME280;9520;50.954;6.968;2022-12-18T02:01:39;102277.88;;;3.28;42.42
18784;BME280;9520;50.954;6.968;2022-12-18T02:02:03;102280.59;;;3.31;42.69
18784;BME280;9520;50.954;6.968;2022-12-18T02:02:26;102274.75;;;3.36;42.46
18784;BME280;9520;50.954;6.968;2022-12-18T02:02:49;102275.72;;;3.38;42.36
18784;BME280;9520;50.954;6.968;2022-12-18T02:03:12;102281.84;;;3.40;42.43
18784;BME280;9520;50.954;6.968;2022-12-18T02:03:35;102272.13;;;3.36;42.70
18784;BME280;9520;50.954;6.968;2022-12-18T02:04:19;102277.00;;;3.27;42.75
18784;BME280;9520;50.954;6.968;2022-12-18T02:04:41;102279.75;;;3.30;42.22
18784;BME280;9520;50.954;6.968;2022-12-18T02:05:10;102277.13;;;3.30;42.09
18784;BME280;9520;50.954;6.968;2022-12-18T02:05:42;102279.03;;;3.34;42.86
18784;BME280;9520;50.954;6.968;2022-12-18T02:06:11;102278.22;;;3.35;42.37
18784;BME280;9520;50.954;6.968;2022-12-18T02:06:40;102275.72;;;3.38;42.54
18784;BME280;9520;50.954;6.968;2022-12-18T02:07:07;102285.31;;;3.39;42.42
18784;BME280;9520;50.954;6.968;2022-12-18T02:07:39;102279.31;;;3.42;42.57
18784;BME280;9520;50.954;6.968;2022-12-18T02:08:09;102280.66;;;3.32;42.18
18784;BME280;9520;50.954;6.968;2022-12-18T02:08:39;102276.47;;;3.36;42.39
18784;BME280;9520;50.954;6.968;2022-12-18T02:09:06;102284.53;;;3.42;42.46
18784;BME280;9520;50.954;6.968;2022-12-18T02:09:33;102283.88;;;3.47;42.37
18784;BME280;9520;50.954;6.968;2022-12-18T02:09:59;102280.31;;;3.45;42.36
18784;BME280;9520;50.954;6.968;2022-12-18T02:10:27;102284.72;;;3.46;42.45
18784;BME280;9520;50.954;6.968;2022-12-18T02:11:02;102279.56;;;3.48;42.67
18784;BME280;9520;50.954;6.968;2022-12-18T02:11:36;102278.84;;;3.52;42.52
18784;BME280;9520;50.954;6.968;2022-12-18T02:12:07;102277.06;;;3.51;42.03
18784;BME280;9520;50.954;6.968;2022-12-18T02:12:40;102287.22;;;3.43;42.06
18784;BME280;9520;50.954;6.968;2022-12-18T02:13:09;102283.41;;;3.35;42.77
18784;BME280;9520;50.954;6.968;2022-12-18T02:13:40;102281.50;;;3.31;42.73
18784;BME280;9520;50.954;6.968;2022-12-18T02:14:13;102281.63;;;3.34;42.81
18784;BME280;9520;50.954;6.968;2022-12-18T02:14:40;102284.28;;;3.36;42.81
18784;BME280;9520;50.954;6.968;2022-12-18T02:15:18;102277.34;;;3.36;42.19
18784;BME280;9520;50.954;6.968;2022-12-18T02:15:51;102284.53;;;3.42;42.57
18784;BME280;9520;50.954;6.968;2022-12-18T02:16:21;102282.38;;;3.32;42.51
18784;BME280;9520;50.954;6.968;2022-12-18T02:16:51;102283.16;;;3.29;42.77
18784;BME280;9520;50.954;6.968;2022-12-18T02:17:18;102288.50;;;3.32;42.53
18784;BME280;9520;50.954;6.968;2022-12-18T02:17:45;102289.31;;;3.31;42.52
18784;BME280;9520;50.954;6.968;2022-12-18T02:18:12;102290.84;;;3.26;42.32
18784;BME280;9520;50.954;6.968;2022-12-18T02:18:38;102277.16;;;3.32;42.72
18784;BME280;9520;50.954;6.968;2022-12-18T02:19:11;102285.13;;;3.35;42.66
18784;BME280;9520;50.954;6.968;2022-12-18T02:19:44;102275.44;;;3.32;42.81
18784;BME280;9520;50.954;6.968;2022-12-18T02:20:13;102283.34;;;3.34;43.05
18784;BME280;9520;50.954;6.968;2022-12-18T02:20:42;102288.75;;;3.38;43.08
18784;BME280;9520;50.954;6.968;2022-12-18T02:21:12;102288.03;;;3.42;42.67
18784;BME280;9520;50.954;6.968;2022-12-18T02:21:49;102287.06;;;3.40;42.93
18784;BME280;9520;50.954;6.968;2022-12-18T02:22:26;102279.22;;;3.39;42.68
18784;BME280;9520;50.954;6.968;2022-12-18T02:23:03;102283.41;;;3.35;42.78
18784;BME280;9520;50.954;6.968;2022-12-18T02:23:39;102279.38;;;3.43;42.65
18784;BME280;9520;50.954;6.968;2022-12-18T02:24:18;102275.97;;;3.44;42.92
18784;BME280;9520;50.954;6.968;2022-12-18T02:24:57;102278.50;;;3.43;42.55
18784;BME280;9520;50.954;6.968;2022-12-18T02:25:34;102276.78;;;3.43;42.77
18784;BME280;9520;50.954;6.968;2022-12-18T02:26:24;102278.78;;;3.51;42.37
18784;BME280;9520;50.954;6.968;2022-12-18T02:26:50;102285.94;;;3.55;42.28
18784;BME280;9520;50.954;6.968;2022-12-18T02:27:17;102281.63;;;3.57;42.53
18784;BME280;9520;50.954;6.968;2022-12-18T02:27:41;102284.25;;;3.57;42.50
18784;BME280;9520;50.954;6.968;2022-12-18T02:28:11;102283.13;;;3.50;42.17
18784;BME280;9520;50.954;6.968;2022-12-18T02:28:36;102291.97;;;3.54;42.70
18784;BME280;9520;50.954;6.968;2022-12-18T02:29:02;102290.25;;;3.54;42.62
18784;BME280;9520;50.954;6.968;2022-12-18T02:29:30;102295.16;;;3.46;42.57
18784;BME280;9520;50.954;6.968;2022-12-18T02:29:56;102290.97;;;3.50;42.39
18784;BME280;9520;50.954;6.968;2022-12-18T02:30:22;102293.78;;;3.56;42.60
18784;BME280;9520;50.954;6.968;2022-12-18T02:30:47;102288.63;;;3.58;42.33
18784;BME280;9520;50.954;6.968;2022-12-18T02:31:13;102298.25;;;3.59;42.40
18784;BME280;9520;50.954;6.968;2022-12-18T02:31:40;102294.09;;;3.64;42.45
18784;BME280;9520;50.954;6.968;2022-12-18T02:32:06;102301.28;;;3.69;41.80
18784;BME280;9520;50.954;6.968;2022-12-18T02:32:32;102296.06;;;3.69;41.69
18784;BME280;9520;50.954;6.968;2022-12-18T02:32:57;102295.03;;;3.66;41.61
18784;BME280;9520;50.954;6.968;2022-12-18T02:33:21;102296.72;;;3.64;41.81